Bairoil, Wyoming
Current Conditions -  °F | °C
As of 5:53 AM on Tuesday 21 Oct 2014 (Local Time) from KRWL Reporting Station
Clear Clear  
Wind Chill: 41°   Ceiling: Unl
Heat Index: 41°   Visibility: 10mi
Dew Point: 32°   Wind: 0mph
Humidity: 70%   Direction: NA
Pressure: 30.07"   Gusts: NA
Location:  42.24°N, 107.56°W
Report Text: KRWL 211153Z AUTO 00000KT 10SM CLR 05/00 A3007 RMK AO2 SLP125 T00500000 10111 20033 56004
Loading
Personal Weather Stations






























Interactive Weather Map
Tropical Storm Tracking
New forecast layout! Learn more

10-Day Weather Forecast

Advertisements
Track Severe Weather on mobile